createdAt,value
2022-10-01T00:00:13.082Z,26.05
2022-10-01T00:03:17.248Z,25.67
2022-10-01T00:06:22.267Z,26.88
2022-10-01T00:09:27.135Z,32.78
2022-10-01T00:12:30.250Z,28.15
2022-10-01T00:15:33.605Z,32.25
2022-10-01T00:18:38.231Z,26.65
2022-10-01T00:21:41.769Z,28.70
2022-10-01T00:24:47.245Z,27.98
2022-10-01T00:27:50.589Z,25.85
2022-10-01T00:30:54.269Z,24.92
2022-10-01T00:33:59.295Z,31.60
2022-10-01T00:37:02.776Z,26.80
2022-10-01T00:40:08.706Z,28.85
2022-10-01T00:43:22.252Z,29.67
2022-10-01T00:46:29.677Z,39.00
2022-10-01T00:49:36.308Z,31.38
2022-10-01T00:52:42.670Z,29.95
2022-10-01T00:55:52.053Z,29.98
2022-10-01T00:58:56.114Z,30.17
2022-10-01T01:02:00.471Z,29.27
2022-10-01T01:05:04.562Z,33.05
2022-10-01T01:08:09.727Z,35.72
2022-10-01T01:11:24.151Z,28.83
2022-10-01T01:14:35.013Z,33.63
2022-10-01T01:17:48.307Z,31.27
2022-10-01T01:21:09.294Z,30.80
2022-10-01T01:24:50.071Z,32.33
2022-10-01T01:28:08.341Z,31.33
2022-10-01T01:31:16.208Z,28.92
2022-10-01T01:34:27.593Z,32.45
2022-10-01T01:37:35.177Z,27.55
2022-10-01T01:40:41.788Z,32.30
2022-10-01T01:43:49.581Z,34.10
2022-10-01T01:46:56.434Z,27.63
2022-10-01T01:50:03.146Z,35.33
2022-10-01T01:53:06.827Z,33.08
2022-10-01T01:56:10.690Z,34.28
2022-10-01T01:59:18.586Z,38.10
2022-10-01T02:02:26.168Z,35.00
2022-10-01T02:05:38.672Z,38.83
2022-10-01T02:08:50.516Z,37.42
2022-10-01T02:12:07.551Z,41.53
2022-10-01T02:15:22.772Z,36.28
2022-10-01T02:18:35.597Z,42.88
2022-10-01T02:21:42.055Z,45.55
2022-10-01T02:24:49.204Z,39.28
2022-10-01T02:27:59.142Z,37.42
2022-10-01T02:31:05.553Z,33.35
2022-10-01T02:34:12.691Z,46.75
2022-10-01T02:37:19.009Z,49.65
2022-10-01T02:40:26.682Z,56.88
2022-10-01T02:43:38.359Z,44.03
2022-10-01T02:46:53.220Z,43.67
2022-10-01T02:49:56.429Z,46.17
2022-10-01T02:53:05.671Z,44.38
2022-10-01T02:56:11.827Z,41.42
2022-10-01T02:59:15.844Z,39.90
2022-10-01T03:02:23.685Z,43.97
2022-10-01T03:05:27.392Z,39.05
2022-10-01T03:08:31.606Z,45.75
2022-10-01T03:11:35.864Z,48.60
2022-10-01T03:14:40.889Z,49.58
2022-10-01T03:17:51.960Z,48.80
2022-10-01T03:20:55.993Z,45.45
2022-10-01T03:24:00.751Z,43.58
2022-10-01T03:27:05.214Z,40.22
2022-10-01T03:30:10.918Z,46.05
2022-10-01T03:35:04.486Z,53.47
2022-10-01T03:38:08.253Z,50.40
2022-10-01T03:41:11.891Z,47.92
2022-10-01T03:44:31.949Z,62.85
2022-10-01T03:47:35.556Z,67.95
2022-10-01T03:50:40.933Z,62.22
2022-10-01T03:53:44.491Z,61.60
2022-10-01T03:56:49.286Z,56.47
2022-10-01T03:59:57.330Z,61.58
2022-10-01T04:03:02.149Z,58.35
2022-10-01T04:06:07.731Z,44.42
2022-10-01T04:09:12.022Z,38.47
2022-10-01T04:12:16.423Z,44.50
2022-10-01T04:15:22.279Z,46.92
2022-10-01T04:18:26.827Z,37.95
2022-10-01T04:21:32.601Z,51.78
2022-10-01T04:24:37.156Z,41.70
2022-10-01T04:27:41.077Z,39.42
2022-10-01T04:30:46.428Z,41.05
2022-10-01T04:33:49.784Z,47.25
2022-10-01T04:36:55.425Z,45.17
2022-10-01T04:39:59.466Z,56.83
2022-10-01T04:43:05.052Z,51.00
2022-10-01T04:46:09.121Z,47.35
2022-10-01T04:49:12.638Z,49.47
2022-10-01T04:52:17.688Z,54.78
2022-10-01T04:55:22.762Z,51.75
2022-10-01T04:58:27.722Z,48.22
2022-10-01T05:01:32.585Z,43.30
2022-10-01T05:04:36.362Z,47.05
2022-10-01T05:07:41.362Z,48.95
2022-10-01T05:10:44.567Z,53.40
2022-10-01T05:13:47.845Z,52.97
2022-10-01T05:16:51.400Z,63.42
2022-10-01T05:19:55.653Z,66.40
2022-10-01T05:23:14.488Z,54.55
2022-10-01T05:26:22.225Z,38.70
2022-10-01T05:32:32.721Z,63.35
2022-10-01T05:35:36.045Z,56.97
2022-10-01T05:38:42.280Z,53.67
2022-10-01T05:41:45.463Z,52.63
2022-10-01T05:44:50.016Z,52.42
2022-10-01T05:48:01.009Z,62.20
2022-10-01T05:51:15.805Z,54.95
2022-10-01T05:54:23.325Z,50.72
2022-10-01T05:57:27.396Z,43.63
2022-10-01T06:00:31.785Z,58.00
2022-10-01T06:03:36.067Z,53.83
2022-10-01T06:06:39.139Z,46.90
2022-10-01T06:09:45.378Z,57.92
2022-10-01T06:12:49.535Z,59.20
2022-10-01T06:15:53.734Z,57.33
2022-10-01T06:18:58.199Z,51.63
2022-10-01T06:22:01.282Z,50.13
2022-10-01T06:25:06.853Z,36.60
2022-10-01T06:28:14.482Z,45.35
2022-10-01T06:31:20.187Z,47.67
2022-10-01T06:34:23.652Z,33.05
2022-10-01T06:37:27.280Z,40.97
2022-10-01T06:40:32.833Z,34.25
2022-10-01T06:43:36.294Z,40.72
2022-10-01T06:46:39.444Z,35.97
2022-10-01T06:49:46.805Z,31.35
2022-10-01T06:52:51.833Z,33.60
2022-10-01T06:55:56.970Z,36.17
2022-10-01T06:59:00.399Z,31.35
2022-10-01T07:02:03.775Z,33.28
2022-10-01T07:05:08.635Z,38.42
2022-10-01T07:08:13.052Z,36.95
2022-10-01T07:11:19.266Z,30.40
2022-10-01T07:14:22.878Z,43.80
2022-10-01T07:17:26.107Z,37.33
2022-10-01T07:20:30.373Z,37.80
2022-10-01T07:23:33.600Z,38.20
2022-10-01T07:26:38.113Z,25.98
2022-10-01T07:29:42.536Z,36.10
2022-10-01T07:32:45.879Z,31.50
2022-10-01T07:35:49.328Z,33.85
2022-10-01T07:38:52.633Z,38.58
2022-10-01T07:41:57.238Z,31.85
2022-10-01T07:45:00.586Z,26.88
2022-10-01T07:48:04.504Z,27.17
2022-10-01T07:51:08.189Z,28.83
2022-10-01T07:54:14.441Z,28.98
2022-10-01T07:57:19.207Z,24.67
2022-10-01T08:00:24.081Z,28.70
2022-10-01T08:03:27.408Z,32.13
2022-10-01T08:06:30.659Z,32.97
2022-10-01T08:09:34.082Z,36.92
2022-10-01T08:12:38.596Z,36.33
2022-10-01T08:15:42.147Z,34.95
2022-10-01T08:18:45.264Z,34.97
2022-10-01T08:21:48.467Z,34.88
2022-10-01T08:24:51.633Z,34.22
2022-10-01T08:27:56.235Z,35.75
2022-10-01T08:30:59.633Z,39.97
2022-10-01T08:34:02.824Z,40.83
2022-10-01T08:37:06.468Z,25.58
2022-10-01T08:40:11.086Z,26.95
2022-10-01T08:43:29.740Z,27.98
2022-10-01T08:46:36.861Z,22.90
2022-10-01T08:50:01.456Z,26.83
2022-10-01T08:53:13.977Z,22.40
2022-10-01T08:56:22.848Z,25.98
2022-10-01T08:59:41.775Z,22.73
2022-10-01T09:02:47.092Z,24.58
2022-10-01T09:06:04.918Z,21.05
2022-10-01T09:09:36.234Z,22.77
2022-10-01T09:12:49.381Z,31.70
2022-10-01T09:16:00.929Z,22.27
2022-10-01T09:19:17.335Z,19.77
2022-10-01T09:22:29.307Z,25.15
2022-10-01T09:25:35.989Z,24.58
2022-10-01T09:28:41.981Z,32.50
2022-10-01T09:35:21.273Z,21.65
2022-10-01T09:38:32.168Z,21.30
2022-10-01T09:41:35.546Z,16.00
2022-10-01T09:44:39.039Z,21.85
2022-10-01T09:47:44.994Z,20.45
2022-10-01T09:50:56.370Z,21.30
2022-10-01T09:54:04.361Z,24.48
2022-10-01T10:00:19.262Z,21.83
2022-10-01T10:03:24.610Z,22.67
2022-10-01T10:06:31.749Z,19.75
2022-10-01T10:09:37.154Z,19.48
2022-10-01T10:12:43.344Z,17.70
2022-10-01T10:15:52.379Z,16.67
2022-10-01T10:18:58.148Z,15.80
2022-10-01T10:22:13.516Z,18.27
2022-10-01T10:25:23.964Z,15.52
2022-10-01T10:28:28.359Z,16.50
2022-10-01T10:31:40.858Z,18.13
2022-10-01T10:34:47.342Z,18.33
2022-10-01T10:37:54.627Z,11.82
2022-10-01T10:40:58.511Z,10.95
2022-10-01T10:44:05.825Z,13.13
2022-10-01T10:47:13.677Z,13.55
2022-10-01T10:50:29.870Z,10.60
2022-10-01T10:53:44.899Z,16.38
2022-10-01T10:56:56.558Z,14.20
2022-10-01T11:00:01.467Z,12.90
2022-10-01T11:03:07.057Z,20.90
2022-10-01T11:06:14.758Z,16.70
2022-10-01T11:09:19.834Z,10.05
2022-10-01T11:12:38.422Z,8.95
2022-10-01T11:19:17.526Z,9.82
2022-10-01T11:22:39.119Z,8.45
2022-10-01T11:25:56.805Z,11.32
2022-10-01T11:29:13.294Z,7.87
2022-10-01T11:32:24.771Z,6.65
2022-10-01T11:35:55.370Z,11.77
2022-10-01T11:39:02.720Z,9.68
2022-10-01T11:42:12.109Z,8.90
2022-10-01T11:45:21.336Z,7.53
2022-10-01T11:48:29.773Z,5.22
2022-10-01T11:51:40.223Z,5.88
2022-10-01T11:54:57.719Z,5.03
2022-10-01T11:58:26.228Z,3.90
2022-10-01T12:01:38.987Z,3.97
2022-10-01T12:04:47.559Z,13.68
2022-10-01T12:07:58.034Z,22.13
2022-10-01T12:11:11.696Z,8.95
2022-10-01T12:14:20.616Z,5.80
2022-10-01T12:17:29.517Z,25.85
2022-10-01T12:20:37.524Z,4.70
2022-10-01T12:23:49.547Z,19.25
2022-10-01T12:27:04.990Z,25.10
2022-10-01T12:30:15.162Z,23.83
2022-10-01T12:33:38.328Z,4.22
2022-10-01T12:36:50.797Z,3.00
2022-10-01T12:40:06.475Z,9.02
2022-10-01T12:43:32.012Z,14.15
2022-10-01T12:46:43.937Z,15.00
2022-10-01T12:49:52.365Z,28.83
2022-10-01T12:53:12.540Z,13.55
2022-10-01T12:56:23.329Z,3.42
2022-10-01T12:59:44.440Z,9.15
2022-10-01T13:03:21.217Z,2.38
2022-10-01T13:06:39.893Z,3.50
2022-10-01T13:09:49.606Z,2.30
2022-10-01T13:13:01.894Z,3.03
2022-10-01T13:16:11.742Z,4.60
2022-10-01T13:19:20.173Z,9.25
2022-10-01T13:22:32.859Z,3.53
2022-10-01T13:25:44.605Z,2.10
2022-10-01T13:29:09.832Z,8.15
2022-10-01T13:32:28.643Z,3.00
2022-10-01T13:35:36.545Z,9.75
2022-10-01T13:41:48.029Z,2.45
2022-10-01T13:44:57.676Z,2.08
2022-10-01T13:48:09.180Z,6.78
2022-10-01T13:51:15.551Z,6.68
2022-10-01T13:54:27.703Z,2.03
2022-10-01T13:57:36.327Z,5.10
2022-10-01T14:00:49.691Z,3.33
2022-10-01T14:04:01.423Z,8.32
2022-10-01T14:07:15.844Z,3.33
2022-10-01T14:10:20.176Z,2.33
2022-10-01T14:13:41.535Z,8.48
2022-10-01T14:16:48.619Z,3.55
2022-10-01T14:19:52.332Z,8.03
2022-10-01T14:23:10.031Z,2.78
2022-10-01T14:26:22.115Z,15.97
2022-10-01T14:29:45.987Z,1.90
2022-10-01T14:33:14.048Z,4.43
2022-10-01T14:36:19.798Z,4.73
2022-10-01T14:39:26.115Z,2.67
2022-10-01T14:42:29.280Z,5.78
2022-10-01T14:45:32.450Z,4.05
2022-10-01T14:48:37.796Z,3.47
2022-10-01T14:51:51.423Z,3.25
2022-10-01T14:55:02.981Z,4.85
2022-10-01T14:58:06.316Z,2.33
2022-10-01T15:01:18.470Z,7.90
2022-10-01T15:04:22.861Z,3.42
2022-10-01T15:07:29.178Z,11.35
2022-10-01T15:10:33.951Z,5.65
2022-10-01T15:13:41.874Z,9.52
2022-10-01T15:16:45.653Z,10.23
2022-10-01T15:19:52.808Z,2.83
2022-10-01T15:23:01.601Z,1.73
2022-10-01T15:26:09.783Z,5.32
2022-10-01T15:29:14.899Z,5.40
2022-10-01T15:35:14.451Z,2.65
2022-10-01T15:38:17.813Z,4.68
2022-10-01T15:41:31.953Z,2.40
2022-10-01T15:44:42.639Z,3.10
2022-10-01T15:47:51.643Z,2.85
2022-10-01T15:51:01.153Z,4.03
2022-10-01T15:54:09.964Z,5.03
2022-10-01T15:57:18.642Z,2.35
2022-10-01T16:00:25.946Z,3.78
2022-10-01T16:03:33.129Z,3.70
2022-10-01T16:06:42.985Z,1.30
2022-10-01T16:10:13.534Z,5.05
2022-10-01T16:13:39.851Z,2.58
2022-10-01T16:16:43.378Z,2.85
2022-10-01T16:19:47.916Z,6.97
2022-10-01T16:22:52.639Z,3.08
2022-10-01T16:25:55.801Z,2.22
2022-10-01T16:29:04.660Z,3.72
2022-10-01T16:32:23.385Z,5.30
2022-10-01T16:35:30.080Z,17.67
2022-10-01T16:38:34.851Z,2.80
2022-10-01T16:41:37.995Z,2.38
2022-10-01T16:44:41.492Z,3.50
2022-10-01T16:47:44.990Z,3.05
2022-10-01T16:50:48.330Z,4.60
2022-10-01T16:53:54.484Z,2.20
2022-10-01T16:56:59.193Z,3.55
2022-10-01T17:00:02.575Z,6.18
2022-10-01T17:03:08.997Z,7.05
2022-10-01T17:06:12.129Z,3.30
2022-10-01T17:09:16.718Z,2.72
2022-10-01T17:12:20.223Z,4.68
2022-10-01T17:15:26.956Z,2.25
2022-10-01T17:18:30.130Z,2.50
2022-10-01T17:21:33.369Z,2.97
2022-10-01T17:24:37.987Z,2.33
2022-10-01T17:27:41.076Z,3.90
2022-10-01T17:30:46.487Z,1.92
2022-10-01T17:33:51.056Z,2.50
2022-10-01T17:36:54.229Z,3.58
2022-10-01T17:39:58.649Z,4.05
2022-10-01T17:43:01.827Z,3.45
2022-10-01T17:46:05.196Z,4.80
2022-10-01T17:49:08.873Z,3.00
2022-10-01T17:52:12.002Z,4.47
2022-10-01T17:55:17.182Z,4.07
2022-10-01T17:58:20.429Z,3.35
2022-10-01T18:01:23.653Z,5.35
2022-10-01T18:04:26.788Z,2.30
2022-10-01T18:07:29.944Z,3.63
2022-10-01T18:10:34.434Z,4.82
2022-10-01T18:13:38.991Z,3.00
2022-10-01T18:16:42.168Z,8.15
2022-10-01T18:19:53.437Z,5.70
2022-10-01T18:22:57.092Z,2.30
2022-10-01T18:26:01.594Z,6.22
2022-10-01T18:29:04.803Z,9.30
2022-10-01T18:32:16.398Z,3.05
2022-10-01T18:35:26.464Z,6.32
2022-10-01T18:38:32.172Z,6.18
2022-10-01T18:41:38.607Z,1.60
2022-10-01T18:44:41.866Z,2.60
2022-10-01T18:47:56.740Z,5.10
2022-10-01T18:51:07.355Z,5.45
2022-10-01T18:54:26.258Z,3.33
2022-10-01T18:57:47.373Z,2.47
2022-10-01T19:01:08.385Z,6.53
2022-10-01T19:04:33.923Z,3.80
2022-10-01T19:07:52.470Z,5.22
2022-10-01T19:14:17.919Z,12.73
2022-10-01T19:17:33.910Z,5.45
2022-10-01T19:20:54.932Z,9.27
2022-10-01T19:24:16.740Z,4.28
2022-10-01T19:27:31.548Z,4.93
2022-10-01T19:30:46.529Z,4.05
2022-10-01T19:33:57.288Z,2.10
2022-10-01T19:37:06.046Z,6.28
2022-10-01T19:40:20.551Z,6.45
2022-10-01T19:43:29.637Z,4.78
2022-10-01T19:46:36.889Z,8.63
2022-10-01T19:49:41.689Z,2.90
2022-10-01T19:52:46.051Z,3.92
2022-10-01T19:55:51.624Z,4.60
2022-10-01T19:58:57.045Z,2.45
2022-10-01T20:02:10.621Z,5.22
2022-10-01T20:05:18.241Z,4.60
2022-10-01T20:08:34.113Z,5.68
2022-10-01T20:11:46.247Z,3.35
2022-10-01T20:15:12.519Z,5.50
2022-10-01T20:18:28.570Z,3.47
2022-10-01T20:21:55.871Z,3.28
2022-10-01T20:25:09.265Z,3.83
2022-10-01T20:28:26.010Z,4.65
2022-10-01T20:31:33.078Z,6.03
2022-10-01T20:34:49.228Z,4.13
2022-10-01T20:38:00.100Z,3.92
2022-10-01T20:41:07.044Z,6.75
2022-10-01T20:44:15.123Z,2.42
2022-10-01T20:47:24.681Z,4.93
2022-10-01T20:50:34.058Z,7.28
2022-10-01T20:53:41.900Z,8.05
2022-10-01T20:57:02.882Z,3.65
2022-10-01T21:00:09.092Z,2.10
2022-10-01T21:03:22.250Z,3.13
2022-10-01T21:06:33.385Z,3.45
2022-10-01T21:09:40.963Z,4.60
2022-10-01T21:12:52.683Z,4.25
2022-10-01T21:16:02.572Z,5.30
2022-10-01T21:19:17.327Z,7.57
2022-10-01T21:22:34.812Z,5.63
2022-10-01T21:25:50.878Z,5.25
2022-10-01T21:29:09.070Z,5.32
2022-10-01T21:35:15.920Z,7.85
2022-10-01T21:38:32.289Z,4.53
2022-10-01T21:41:53.738Z,3.40
2022-10-01T21:45:20.335Z,3.28
2022-10-01T21:48:40.087Z,4.93
2022-10-01T21:52:00.061Z,8.35
2022-10-01T21:55:20.855Z,6.63
2022-10-01T21:58:38.276Z,5.65
2022-10-01T22:02:01.664Z,8.18
2022-10-01T22:05:12.489Z,6.15
2022-10-01T22:08:28.413Z,5.78
2022-10-01T22:11:39.176Z,9.02
2022-10-01T22:14:46.591Z,6.22
2022-10-01T22:17:52.192Z,5.70
2022-10-01T22:20:59.079Z,3.67
2022-10-01T22:24:08.530Z,3.35
2022-10-01T22:27:16.362Z,8.95
2022-10-01T22:33:31.807Z,2.88
2022-10-01T22:36:43.214Z,7.65
2022-10-01T22:39:52.399Z,4.82
2022-10-01T22:43:02.062Z,7.75
2022-10-01T22:46:22.521Z,5.43
2022-10-01T22:49:40.681Z,8.43
2022-10-01T22:52:54.930Z,7.30
2022-10-01T22:55:59.759Z,3.80
2022-10-01T22:59:13.328Z,4.22
2022-10-01T23:02:21.644Z,7.85
2022-10-01T23:05:40.686Z,4.68
2022-10-01T23:08:49.378Z,5.25
2022-10-01T23:12:01.921Z,7.32
2022-10-01T23:15:20.323Z,5.35
2022-10-01T23:18:40.081Z,6.18
2022-10-01T23:21:52.946Z,7.07
2022-10-01T23:25:10.206Z,6.03
2022-10-01T23:28:26.662Z,9.20
2022-10-01T23:31:37.590Z,6.80
2022-10-01T23:34:48.292Z,9.35
2022-10-01T23:38:18.136Z,10.68
2022-10-01T23:41:28.488Z,10.65
2022-10-01T23:44:40.305Z,6.13
2022-10-01T23:47:47.981Z,6.22
2022-10-01T23:51:00.475Z,8.68
2022-10-01T23:54:10.797Z,7.47
2022-10-01T23:57:19.781Z,8.65
